Time;durP1;ratioP1;P1;durP2;ratioP2;P2;SDS_P1;SDS_P2;PMS_P1;PMS_P2;Temp;Humidity;BMP_temperature;BMP_pressure;BME280_temperature;BME280_humidity;BME280_pressure;Samples;Min_cycle;Max_cycle;Signal;HPM_P1;HPM_P2
2023/05/20 00:00:58;;;;;;;5.10;4.70;;;12.80;99.90;;;;;;4932185;29;20216;-71
2023/05/20 00:03:24;;;;;;;5.80;4.40;;;12.80;99.90;;;;;;4931662;29;20190;-71
2023/05/20 00:05:49;;;;;;;6.37;4.60;;;12.90;99.90;;;;;;4932375;29;20193;-71
2023/05/20 00:08:17;;;;;;;5.73;4.70;;;12.80;99.90;;;;;;4919141;29;20217;-72
2023/05/20 00:10:42;;;;;;;6.00;5.18;;;12.70;99.90;;;;;;4916846;29;20625;-71
2023/05/20 00:13:08;;;;;;;5.20;4.70;;;12.80;99.90;;;;;;4935075;29;20249;-72
2023/05/20 00:15:35;;;;;;;5.30;4.80;;;12.90;99.90;;;;;;4930256;29;20186;-72
2023/05/20 00:18:01;;;;;;;8.93;6.07;;;13.20;99.90;;;;;;4915558;29;20606;-72
2023/05/20 00:20:26;;;;;;;6.05;4.95;;;13.20;99.90;;;;;;4931610;29;20214;-71
2023/05/20 00:22:52;;;;;;;5.17;4.67;;;13.20;99.90;;;;;;4929934;29;20656;-72
2023/05/20 00:25:18;;;;;;;5.33;4.83;;;13.00;99.90;;;;;;4916511;29;20558;-72
2023/05/20 00:27:43;;;;;;;5.37;4.87;;;13.00;99.90;;;;;;4915271;29;20285;-72
2023/05/20 00:30:09;;;;;;;5.57;4.57;;;13.20;99.90;;;;;;4928513;29;20205;-72
2023/05/20 00:32:35;;;;;;;5.22;4.72;;;13.10;99.90;;;;;;4929233;29;20233;-71
2023/05/20 00:35:02;;;;;;;8.63;5.40;;;13.00;99.90;;;;;;4930956;29;20213;-72
2023/05/20 00:37:27;;;;;;;5.53;4.70;;;13.10;99.90;;;;;;4930355;29;20815;-70
2023/05/20 00:39:53;;;;;;;5.83;4.57;;;13.20;99.90;;;;;;4931551;29;20193;-70
2023/05/20 00:42:23;;;;;;;4.90;4.40;;;13.20;99.90;;;;;;4931036;29;20209;-70
2023/05/20 00:44:50;;;;;;;4.72;4.32;;;13.30;99.90;;;;;;4926736;29;20199;-70
2023/05/20 00:47:17;;;;;;;5.53;5.00;;;13.10;99.90;;;;;;4930141;29;20236;-70
2023/05/20 00:49:47;;;;;;;6.10;5.00;;;13.20;99.90;;;;;;4929736;29;20273;-70
2023/05/20 00:52:14;;;;;;;5.65;4.80;;;13.20;99.90;;;;;;4929863;29;20322;-70
2023/05/20 00:54:40;;;;;;;5.25;4.85;;;13.20;99.90;;;;;;4928934;29;20569;-70
2023/05/20 00:57:06;;;;;;;4.78;4.35;;;13.40;99.90;;;;;;4913667;29;20186;-70
2023/05/20 00:59:35;;;;;;;5.90;4.82;;;13.40;99.90;;;;;;4930622;29;20181;-70
2023/05/20 01:02:02;;;;;;;4.72;4.32;;;13.50;99.90;;;;;;4928793;29;20695;-70
2023/05/20 01:04:27;;;;;;;5.40;4.43;;;13.40;99.90;;;;;;4929726;29;20194;-70
2023/05/20 01:06:54;;;;;;;5.33;4.80;;;13.20;99.90;;;;;;4930948;29;20189;-71
2023/05/20 01:09:20;;;;;;;5.30;4.18;;;13.20;99.90;;;;;;4915584;29;20298;-70
2023/05/20 01:11:57;;;;;;;4.80;4.40;;;13.10;99.90;;;;;;4931488;29;20296;-70
2023/05/20 01:14:27;;;;;;;7.03;5.03;;;13.20;99.90;;;;;;4930446;29;20473;-71
2023/05/20 01:16:54;;;;;;;5.10;4.57;;;13.50;99.90;;;;;;4924814;29;20280;-71
2023/05/20 01:19:34;;;;;;;7.32;4.60;;;13.20;99.90;;;;;;4932055;29;20186;-71
2023/05/20 01:22:04;;;;;;;6.03;4.90;;;13.60;99.90;;;;;;4914597;29;20201;-70
2023/05/20 01:24:30;;;;;;;6.40;5.00;;;13.70;99.90;;;;;;4929595;29;20196;-71
2023/05/20 01:26:57;;;;;;;5.10;4.70;;;13.10;99.90;;;;;;4932576;29;20292;-71
2023/05/20 01:29:23;;;;;;;4.43;4.03;;;13.30;99.90;;;;;;4932664;29;20453;-71
2023/05/20 01:31:50;;;;;;;6.43;5.15;;;13.20;99.90;;;;;;4931788;29;20594;-70
2023/05/20 01:34:16;;;;;;;7.53;5.18;;;13.50;99.90;;;;;;4912225;29;20213;-71
2023/05/20 01:36:44;;;;;;;5.67;5.07;;;13.40;99.90;;;;;;4927195;29;20194;-71
2023/05/20 01:39:11;;;;;;;5.30;4.80;;;13.60;99.90;;;;;;4912854;29;20449;-71
2023/05/20 01:41:37;;;;;;;6.30;5.00;;;13.50;99.90;;;;;;4929528;29;20220;-71
2023/05/20 01:44:02;;;;;;;5.40;4.90;;;13.60;99.90;;;;;;4932062;29;20188;-70
2023/05/20 01:46:34;;;;;;;5.30;4.80;;;13.60;99.90;;;;;;4930368;29;20185;-71
2023/05/20 01:49:00;;;;;;;6.75;5.18;;;13.70;99.90;;;;;;4914652;29;20196;-71
2023/05/20 01:51:26;;;;;;;5.03;4.53;;;13.70;99.90;;;;;;4929759;29;20308;-71
2023/05/20 01:53:52;;;;;;;4.68;4.28;;;14.00;99.90;;;;;;4929524;29;20177;-71
2023/05/20 01:56:17;;;;;;;5.70;5.20;;;13.80;99.90;;;;;;4914213;29;20212;-71
2023/05/20 01:58:43;;;;;;;6.20;4.87;;;13.80;99.90;;;;;;4930059;29;20567;-71
2023/05/20 02:01:08;;;;;;;5.53;5.10;;;14.00;99.90;;;;;;4916292;29;20270;-71
2023/05/20 02:03:34;;;;;;;5.77;5.27;;;13.70;99.90;;;;;;4917504;29;20626;-70
2023/05/20 02:06:00;;;;;;;5.63;5.13;;;13.60;99.90;;;;;;4930700;29;20174;-71
2023/05/20 02:08:25;;;;;;;5.90;5.40;;;13.40;99.90;;;;;;4928749;29;20193;-71
2023/05/20 02:10:51;;;;;;;5.83;5.30;;;13.70;99.90;;;;;;4929661;29;20205;-70
2023/05/20 02:13:17;;;;;;;6.10;5.50;;;13.80;99.90;;;;;;4911705;29;20217;-71
2023/05/20 02:15:43;;;;;;;8.73;5.80;;;13.80;99.90;;;;;;4910813;29;20651;-71
2023/05/20 02:18:11;;;;;;;5.80;5.20;;;13.60;99.90;;;;;;4914521;29;20308;-71
2023/05/20 02:20:37;;;;;;;5.53;5.10;;;13.70;99.90;;;;;;4929276;29;20205;-71
2023/05/20 02:23:04;;;;;;;5.57;5.05;;;13.80;99.90;;;;;;4929571;29;20241;-71
2023/05/20 02:25:31;;;;;;;6.03;5.32;;;13.60;99.90;;;;;;4925429;29;20245;-72
2023/05/20 02:27:56;;;;;;;6.07;5.57;;;13.80;99.90;;;;;;4930229;29;20253;-71
2023/05/20 02:30:22;;;;;;;5.57;5.07;;;13.60;99.90;;;;;;4930366;29;20189;-71
2023/05/20 02:32:48;;;;;;;5.30;4.80;;;13.50;99.90;;;;;;4928718;29;20630;-71
2023/05/20 02:35:13;;;;;;;5.80;5.20;;;13.50;99.90;;;;;;4927631;29;20192;-71
2023/05/20 02:37:39;;;;;;;6.43;5.83;;;13.50;99.90;;;;;;4926940;29;20190;-70
2023/05/20 02:40:08;;;;;;;5.10;4.70;;;13.40;99.90;;;;;;4926797;29;20185;-71
2023/05/20 02:42:33;;;;;;;6.65;5.30;;;13.60;99.90;;;;;;4928390;29;20204;-71
2023/05/20 02:44:59;;;;;;;6.27;5.73;;;13.60;99.90;;;;;;4929135;29;20194;-71
2023/05/20 02:47:24;;;;;;;5.60;5.07;;;13.40;99.90;;;;;;4930768;29;20284;-71
2023/05/20 02:49:50;;;;;;;6.23;5.63;;;13.60;99.90;;;;;;4928940;29;20564;-71
2023/05/20 02:52:16;;;;;;;5.40;4.90;;;13.80;99.90;;;;;;4926020;29;20519;-70
2023/05/20 02:54:42;;;;;;;6.40;5.80;;;13.50;99.90;;;;;;4929852;29;20779;-71
2023/05/20 02:57:08;;;;;;;5.17;4.77;;;13.60;99.90;;;;;;4925854;29;20823;-71
2023/05/20 02:59:34;;;;;;;6.20;5.60;;;13.50;99.90;;;;;;4929362;29;20196;-71
2023/05/20 03:02:00;;;;;;;5.30;4.80;;;13.80;99.90;;;;;;4930634;29;20209;-71
2023/05/20 03:04:25;;;;;;;5.20;4.80;;;13.50;99.90;;;;;;4930937;29;21651;-71
2023/05/20 03:06:52;;;;;;;7.90;5.20;;;13.50;99.90;;;;;;4929955;29;20212;-71
2023/05/20 03:09:18;;;;;;;5.78;5.18;;;13.30;99.90;;;;;;4912098;29;20501;-70
2023/05/20 03:11:45;;;;;;;6.43;5.90;;;13.30;99.90;;;;;;4930674;29;20213;-70
2023/05/20 03:14:10;;;;;;;6.60;5.70;;;13.10;99.90;;;;;;4929539;29;20185;-70
2023/05/20 03:16:36;;;;;;;5.30;4.83;;;13.10;99.90;;;;;;4930451;29;20201;-71
2023/05/20 03:19:02;;;;;;;7.28;5.07;;;13.30;99.90;;;;;;4929478;29;20640;-71
2023/05/20 03:21:28;;;;;;;6.37;5.77;;;13.30;99.90;;;;;;4927048;29;20207;-71
2023/05/20 03:23:53;;;;;;;6.40;5.80;;;13.40;99.90;;;;;;4924291;29;20590;-71
2023/05/20 03:26:20;;;;;;;5.90;5.30;;;13.30;99.90;;;;;;4926185;29;20204;-71
2023/05/20 03:28:46;;;;;;;6.38;5.88;;;13.10;99.90;;;;;;4927995;29;20181;-71
2023/05/20 03:31:11;;;;;;;5.93;5.43;;;13.40;99.90;;;;;;4927887;29;20205;-71
2023/05/20 03:33:37;;;;;;;6.57;5.97;;;13.30;99.90;;;;;;4928289;29;20698;-71
2023/05/20 03:36:03;;;;;;;6.00;5.50;;;13.40;99.90;;;;;;4927750;29;20186;-71
2023/05/20 03:38:29;;;;;;;5.70;5.30;;;13.20;99.90;;;;;;4928758;29;20491;-71
2023/05/20 03:40:54;;;;;;;6.00;5.50;;;13.20;99.90;;;;;;4927848;29;20980;-71
2023/05/20 03:43:20;;;;;;;5.80;5.40;;;13.30;99.90;;;;;;4914542;29;20189;-71
2023/05/20 03:45:46;;;;;;;6.70;5.40;;;13.10;99.90;;;;;;4927946;29;20193;-71
2023/05/20 03:48:11;;;;;;;5.80;5.33;;;13.00;99.90;;;;;;4930058;29;20193;-71
2023/05/20 03:50:37;;;;;;;5.67;5.17;;;13.20;99.90;;;;;;4929979;29;20248;-71
2023/05/20 03:53:02;;;;;;;6.30;5.80;;;13.00;99.90;;;;;;4928130;29;20215;-71
2023/05/20 03:55:28;;;;;;;6.00;5.40;;;13.10;99.90;;;;;;4928483;29;20185;-71
2023/05/20 03:57:53;;;;;;;7.17;6.33;;;13.20;99.90;;;;;;4929702;29;20188;-70
2023/05/20 04:00:19;;;;;;;5.80;5.30;;;13.10;99.90;;;;;;4929023;29;20193;-70
2023/05/20 04:02:45;;;;;;;5.40;5.00;;;13.20;99.90;;;;;;4927377;29;20185;-70
2023/05/20 04:05:10;;;;;;;5.87;5.37;;;13.10;99.90;;;;;;4932236;29;20186;-71
2023/05/20 04:07:36;;;;;;;6.10;5.60;;;13.30;99.90;;;;;;4926221;29;20190;-71
2023/05/20 04:10:03;;;;;;;6.10;5.60;;;13.20;99.90;;;;;;4929750;29;20557;-70
2023/05/20 04:12:30;;;;;;;6.43;5.90;;;13.20;99.90;;;;;;4930415;28;20220;-70
2023/05/20 04:15:02;;;;;;;5.75;5.35;;;13.20;99.90;;;;;;4930065;29;20297;-70
2023/05/20 04:17:29;;;;;;;6.60;6.10;;;13.50;99.90;;;;;;4929124;29;20182;-70
2023/05/20 04:19:56;;;;;;;7.75;5.32;;;13.60;99.90;;;;;;4929550;29;20265;-70
2023/05/20 04:22:22;;;;;;;6.13;5.53;;;13.60;99.90;;;;;;4930939;29;20205;-70
2023/05/20 04:24:48;;;;;;;8.02;5.88;;;13.70;99.90;;;;;;4931299;29;20237;-70
2023/05/20 04:27:15;;;;;;;5.38;4.97;;;13.90;99.90;;;;;;4932049;29;20197;-71
2023/05/20 04:29:44;;;;;;;6.82;6.22;;;13.70;99.90;;;;;;4931647;29;20259;-70
2023/05/20 04:32:12;;;;;;;5.82;5.30;;;13.90;99.90;;;;;;4931039;29;20292;-70
2023/05/20 04:34:37;;;;;;;5.75;5.35;;;13.90;99.90;;;;;;4931302;29;20182;-71
2023/05/20 04:37:03;;;;;;;6.00;5.50;;;13.90;99.90;;;;;;4931785;29;20248;-70
2023/05/20 04:39:29;;;;;;;6.47;5.80;;;14.00;99.90;;;;;;4929741;29;20194;-70
2023/05/20 04:41:54;;;;;;;5.50;5.00;;;14.30;99.90;;;;;;4932129;29;20209;-70
2023/05/20 04:44:21;;;;;;;5.77;5.33;;;14.10;99.90;;;;;;4912657;29;20253;-71
2023/05/20 04:46:47;;;;;;;5.22;4.82;;;14.20;99.90;;;;;;4932206;29;20277;-70
2023/05/20 04:49:14;;;;;;;5.68;5.18;;;14.20;99.90;;;;;;4931926;29;20722;-70
2023/05/20 04:51:40;;;;;;;5.90;5.40;;;14.40;99.90;;;;;;4930748;29;20232;-70
2023/05/20 04:54:06;;;;;;;6.13;5.63;;;14.40;99.90;;;;;;4912665;29;20663;-70
2023/05/20 04:56:32;;;;;;;5.90;5.40;;;14.50;99.90;;;;;;4931069;29;20188;-70
2023/05/20 04:58:58;;;;;;;5.90;5.30;;;14.30;99.90;;;;;;4930199;29;20477;-70
2023/05/20 05:01:23;;;;;;;6.30;5.80;;;14.50;99.90;;;;;;4915769;29;20469;-68
2023/05/20 05:03:49;;;;;;;6.03;5.53;;;14.30;99.90;;;;;;4930522;29;20224;-70
2023/05/20 05:06:15;;;;;;;7.43;5.77;;;14.30;99.90;;;;;;4915593;29;20284;-69
2023/05/20 05:08:40;;;;;;;5.83;5.30;;;14.50;99.90;;;;;;4931402;29;20194;-70
2023/05/20 05:11:07;;;;;;;6.03;5.47;;;14.50;99.90;;;;;;4931605;29;20275;-70
2023/05/20 05:13:32;;;;;;;5.80;5.35;;;14.60;99.90;;;;;;4928426;29;20226;-70
2023/05/20 05:15:59;;;;;;;6.53;5.90;;;14.70;99.90;;;;;;4932805;29;20194;-70
2023/05/20 05:18:25;;;;;;;5.82;5.20;;;14.80;99.90;;;;;;4930804;29;20182;-70
2023/05/20 05:21:01;;;;;;;6.80;6.10;;;14.90;99.90;;;;;;4929812;29;20714;-69
2023/05/20 05:23:26;;;;;;;5.90;5.40;;;14.90;99.90;;;;;;4927605;29;20193;-69
2023/05/20 05:25:53;;;;;;;6.10;5.60;;;15.00;99.90;;;;;;4929315;29;20244;-70
2023/05/20 05:28:18;;;;;;;7.38;6.60;;;14.70;99.90;;;;;;4931633;29;21153;-69
2023/05/20 05:30:44;;;;;;;5.80;5.40;;;14.80;99.90;;;;;;4932055;29;20220;-69
2023/05/20 05:33:09;;;;;;;6.40;5.90;;;15.30;99.90;;;;;;4930147;29;20217;-69
2023/05/20 05:35:35;;;;;;;6.53;6.03;;;15.30;99.90;;;;;;4930181;29;20193;-69
2023/05/20 05:38:01;;;;;;;5.97;5.50;;;15.30;99.90;;;;;;4928697;29;20657;-69
2023/05/20 05:40:27;;;;;;;6.30;5.80;;;15.50;99.90;;;;;;4925981;29;20674;-70
2023/05/20 05:42:52;;;;;;;6.40;5.80;;;15.40;99.90;;;;;;4932768;29;20536;-70
2023/05/20 05:45:18;;;;;;;6.47;5.93;;;15.60;99.90;;;;;;4925557;29;20186;-69
2023/05/20 05:47:43;;;;;;;6.60;5.97;;;15.90;99.90;;;;;;4929290;29;20260;-69
2023/05/20 05:50:09;;;;;;;6.17;5.67;;;15.70;99.90;;;;;;4930912;29;20189;-73
2023/05/20 05:52:35;;;;;;;5.75;5.18;;;15.80;99.90;;;;;;4927109;29;20225;-70
2023/05/20 05:55:01;;;;;;;10.03;5.30;;;15.80;99.90;;;;;;4930592;29;20754;-70
2023/05/20 05:57:27;;;;;;;6.07;5.53;;;16.30;99.90;;;;;;4927125;29;20552;-70
2023/05/20 05:59:52;;;;;;;5.23;4.83;;;16.00;99.90;;;;;;4926369;29;20178;-70
2023/05/20 06:02:18;;;;;;;8.37;5.60;;;16.10;99.90;;;;;;4925798;29;20215;-74
2023/05/20 06:04:43;;;;;;;6.13;5.57;;;16.10;99.90;;;;;;4924565;29;20277;-72
2023/05/20 06:07:09;;;;;;;6.10;5.60;;;16.40;99.90;;;;;;4930310;29;20221;-73
2023/05/20 06:09:35;;;;;;;5.93;5.43;;;16.60;99.90;;;;;;4930380;29;20215;-73
2023/05/20 06:12:01;;;;;;;5.70;5.20;;;16.40;99.90;;;;;;4922760;29;20221;-73
2023/05/20 06:14:26;;;;;;;6.43;5.85;;;16.70;99.90;;;;;;4929022;29;20185;-72
2023/05/20 06:16:52;;;;;;;6.80;5.73;;;17.10;99.90;;;;;;4929565;29;20200;-73
2023/05/20 06:19:17;;;;;;;5.13;4.73;;;16.90;99.90;;;;;;4908673;29;20178;-72
2023/05/20 06:21:43;;;;;;;6.70;6.10;;;16.90;99.90;;;;;;4924685;29;20614;-74
2023/05/20 06:24:09;;;;;;;6.10;5.60;;;17.00;99.90;;;;;;4926371;29;20189;-72
2023/05/20 06:26:34;;;;;;;7.20;5.73;;;16.90;99.90;;;;;;4924750;29;20202;-72
2023/05/20 06:29:00;;;;;;;7.07;6.43;;;16.70;99.90;;;;;;4964078;23;21573;-85
2023/05/20 06:31:26;;;;;;;7.40;6.00;;;17.10;99.90;;;;;;4951466;28;20262;-89
2023/05/20 06:33:51;;;;;;;6.67;6.07;;;16.80;99.90;;;;;;4937851;28;20538;-85
2023/05/20 06:36:17;;;;;;;6.07;5.50;;;17.50;99.90;;;;;;4934322;29;20185;-84
2023/05/20 06:38:42;;;;;;;6.40;5.80;;;17.40;99.90;;;;;;4934424;28;20251;-84
2023/05/20 06:41:08;;;;;;;6.67;5.97;;;17.40;99.90;;;;;;4935132;28;20669;-86
2023/05/20 06:43:33;;;;;;;6.70;6.10;;;17.10;99.90;;;;;;4936462;28;20347;-85
2023/05/20 06:45:59;;;;;;;6.37;5.87;;;17.40;99.90;;;;;;4931142;28;20189;-86
2023/05/20 06:48:24;;;;;;;6.53;6.03;;;17.50;99.90;;;;;;4935747;29;21005;-86
2023/05/20 06:50:50;;;;;;;7.10;6.40;;;18.40;99.90;;;;;;4936379;29;20196;-85
2023/05/20 06:53:16;;;;;;;5.90;5.47;;;18.50;99.90;;;;;;4932803;29;20221;-90
2023/05/20 06:55:41;;;;;;;6.20;5.70;;;18.50;99.20;;;;;;4934440;29;20185;-87
2023/05/20 06:58:07;;;;;;;6.57;5.97;;;18.20;99.30;;;;;;4934587;29;20284;-88
2023/05/20 07:00:32;;;;;;;6.10;5.60;;;18.50;99.70;;;;;;4929400;29;20193;-89
2023/05/20 07:02:58;;;;;;;5.80;5.30;;;17.90;98.90;;;;;;4930354;29;20213;-89
2023/05/20 07:05:23;;;;;;;6.40;5.90;;;18.40;98.90;;;;;;4937419;28;20193;-87
2023/05/20 07:07:49;;;;;;;5.97;5.37;;;19.20;98.60;;;;;;4936110;29;20201;-89
2023/05/20 07:10:15;;;;;;;6.60;6.10;;;19.50;97.60;;;;;;4922164;29;20200;-89
2023/05/20 07:12:41;;;;;;;7.03;6.40;;;19.80;97.60;;;;;;4938554;29;20224;-88
2023/05/20 07:15:07;;;;;;;6.57;5.97;;;20.60;96.00;;;;;;4938567;29;20455;-88
2023/05/20 07:17:33;;;;;;;6.93;6.28;;;20.10;94.20;;;;;;4938463;28;20197;-87
2023/05/20 07:19:58;;;;;;;6.47;5.87;;;19.90;94.40;;;;;;4938714;29;20192;-84
2023/05/20 07:22:24;;;;;;;6.47;5.97;;;21.10;94.60;;;;;;4938778;29;20234;-85
2023/05/20 07:24:49;;;;;;;6.00;5.50;;;21.90;93.60;;;;;;4932820;29;20229;-86
2023/05/20 07:27:15;;;;;;;6.33;5.73;;;22.90;91.60;;;;;;4936376;29;20212;-85
2023/05/20 07:29:43;;;;;;;6.37;5.87;;;23.80;87.10;;;;;;4937941;28;20208;-85
2023/05/20 07:32:09;;;;;;;5.20;4.80;;;25.50;82.50;;;;;;4936008;23;20291;-68
2023/05/20 07:34:35;;;;;;;5.17;4.77;;;26.50;75.50;;;;;;4930115;28;20453;-69
2023/05/20 07:37:00;;;;;;;6.40;5.70;;;27.40;72.80;;;;;;4945397;28;20444;-68
2023/05/20 07:39:26;;;;;;;5.93;5.40;;;25.10;75.80;;;;;;4950078;28;20185;-68
2023/05/20 07:41:52;;;;;;;6.13;5.63;;;24.70;78.60;;;;;;4936122;28;20683;-68
2023/05/20 07:44:17;;;;;;;6.33;5.77;;;25.00;78.40;;;;;;4906756;29;20633;-67
2023/05/20 07:46:43;;;;;;;5.37;4.97;;;25.60;76.00;;;;;;4926099;29;20199;-67
2023/05/20 07:49:09;;;;;;;5.70;5.30;;;24.20;78.70;;;;;;4928350;29;20268;-67
2023/05/20 07:51:35;;;;;;;6.10;5.60;;;23.30;81.80;;;;;;4922382;29;20477;-67
2023/05/20 07:54:01;;;;;;;6.30;5.80;;;22.70;83.50;;;;;;4911871;29;20241;-70
2023/05/20 07:56:27;;;;;;;5.93;5.43;;;22.50;84.70;;;;;;4926593;29;20227;-69
2023/05/20 07:58:57;;;;;;;6.00;5.50;;;22.70;85.50;;;;;;4911416;29;20185;-69
2023/05/20 08:01:23;;;;;;;6.47;5.87;;;23.10;86.20;;;;;;4929080;29;20463;-70
2023/05/20 08:03:49;;;;;;;5.73;5.13;;;22.30;87.10;;;;;;4911968;29;21017;-70
2023/05/20 08:06:15;;;;;;;7.03;5.53;;;22.30;86.50;;;;;;4911697;29;20461;-71
2023/05/20 08:08:42;;;;;;;6.07;5.60;;;22.80;87.50;;;;;;4914060;29;20194;-71
2023/05/20 08:11:08;;;;;;;5.20;4.80;;;23.40;83.90;;;;;;4930966;29;20465;-70
2023/05/20 08:13:34;;;;;;;5.70;5.30;;;23.10;83.40;;;;;;4931534;29;20487;-70
2023/05/20 08:16:00;;;;;;;6.03;5.43;;;22.80;84.90;;;;;;4930876;29;20529;-70
2023/05/20 08:18:26;;;;;;;5.97;5.57;;;23.20;84.60;;;;;;4931312;29;20273;-70
2023/05/20 08:20:52;;;;;;;5.93;5.53;;;23.60;82.50;;;;;;4933311;29;20208;-70
2023/05/20 08:23:17;;;;;;;6.20;5.60;;;23.40;82.70;;;;;;4916466;29;20445;-70
2023/05/20 08:25:45;;;;;;;6.30;5.80;;;22.50;84.10;;;;;;4915470;29;20460;-70
2023/05/20 08:28:11;;;;;;;5.80;5.30;;;21.60;87.80;;;;;;4913143;29;20212;-70
2023/05/20 08:30:36;;;;;;;6.37;5.77;;;21.60;88.70;;;;;;4933020;29;20481;-70
2023/05/20 08:33:02;;;;;;;5.93;5.40;;;21.40;89.00;;;;;;4933657;29;20591;-70
2023/05/20 08:35:28;;;;;;;5.90;5.40;;;21.00;90.20;;;;;;4932433;29;20260;-70
2023/05/20 08:37:54;;;;;;;6.27;5.77;;;20.90;90.70;;;;;;4913424;29;20520;-70
2023/05/20 08:40:20;;;;;;;6.90;6.40;;;20.70;91.20;;;;;;4933487;29;20445;-69
2023/05/20 08:42:48;;;;;;;6.40;5.90;;;20.60;91.40;;;;;;4931817;29;20181;-70
2023/05/20 08:45:17;;;;;;;6.43;5.93;;;20.30;92.00;;;;;;4913763;29;20201;-71
2023/05/20 08:47:43;;;;;;;6.70;6.10;;;20.30;92.40;;;;;;4932499;29;20577;-69
2023/05/20 08:50:10;;;;;;;6.90;6.30;;;20.30;92.50;;;;;;4919221;29;20191;-69
2023/05/20 08:52:41;;;;;;;7.35;6.65;;;20.50;92.00;;;;;;4915573;29;20216;-69
2023/05/20 08:55:08;;;;;;;7.20;6.60;;;20.90;92.00;;;;;;4932368;29;20181;-72
2023/05/20 08:57:35;;;;;;;7.53;6.70;;;22.00;90.70;;;;;;4928883;29;20449;-69
2023/05/20 09:00:08;;;;;;;6.20;5.70;;;23.10;87.20;;;;;;4916987;29;20441;-71
2023/05/20 09:02:37;;;;;;;5.70;5.20;;;24.10;84.00;;;;;;4930964;29;20557;-71
2023/05/20 09:05:03;;;;;;;6.60;6.10;;;24.40;81.80;;;;;;4929375;29;20515;-71
2023/05/20 09:07:29;;;;;;;7.63;7.03;;;24.20;81.30;;;;;;4927357;29;20866;-71
2023/05/20 09:09:56;;;;;;;5.83;5.33;;;24.50;80.60;;;;;;4914490;29;20442;-71
2023/05/20 09:12:21;;;;;;;5.80;5.30;;;25.00;79.00;;;;;;4931556;29;20473;-70
2023/05/20 09:14:47;;;;;;;6.47;5.97;;;26.30;75.60;;;;;;4932816;29;20511;-71
2023/05/20 09:17:13;;;;;;;8.53;7.93;;;26.60;73.00;;;;;;4932615;29;20189;-71
2023/05/20 09:19:38;;;;;;;6.10;5.67;;;27.10;71.20;;;;;;4918671;29;20685;-70
2023/05/20 09:22:04;;;;;;;8.43;7.80;;;26.50;70.80;;;;;;4930648;29;20301;-71
2023/05/20 09:24:30;;;;;;;6.20;5.60;;;26.20;72.00;;;;;;4916884;29;20591;-71
2023/05/20 09:26:57;;;;;;;6.53;6.00;;;26.60;71.70;;;;;;4931247;29;20545;-71
2023/05/20 09:29:23;;;;;;;5.50;5.10;;;26.50;71.00;;;;;;4931283;29;20197;-71
2023/05/20 09:31:49;;;;;;;6.13;5.63;;;26.20;71.20;;;;;;4929173;29;20850;-71
2023/05/20 09:34:15;;;;;;;7.27;6.77;;;25.90;72.40;;;;;;4929540;29;20450;-72
2023/05/20 09:36:43;;;;;;;7.13;6.43;;;26.70;72.40;;;;;;4912546;29;20543;-71
2023/05/20 09:39:15;;;;;;;6.80;6.10;;;27.60;69.10;;;;;;4913005;29;20454;-73
2023/05/20 09:42:04;;;;;;;6.33;5.93;;;27.50;67.80;;;;;;4912674;29;20589;-72
2023/05/20 09:44:31;;;;;;;7.20;6.50;;;26.70;70.00;;;;;;4913207;29;20505;-71
2023/05/20 09:46:58;;;;;;;9.30;6.60;;;26.60;70.40;;;;;;4909043;29;20445;-71
2023/05/20 09:49:25;;;;;;;7.53;6.83;;;26.80;71.50;;;;;;4929900;29;20470;-71
2023/05/20 09:51:54;;;;;;;5.90;5.50;;;25.90;71.80;;;;;;4927318;29;20579;-72
2023/05/20 09:54:21;;;;;;;9.73;8.90;;;24.80;73.60;;;;;;4930833;29;20966;-72
2023/05/20 09:56:46;;;;;;;5.83;5.43;;;25.50;75.20;;;;;;4930119;29;20441;-72
2023/05/20 09:59:15;;;;;;;6.33;5.83;;;25.90;72.80;;;;;;4930673;29;20949;-71
2023/05/20 10:01:41;;;;;;;6.50;5.90;;;25.00;72.80;;;;;;4928852;29;20213;-73
2023/05/20 10:04:09;;;;;;;6.73;6.20;;;26.60;71.10;;;;;;4917126;29;20443;-72
2023/05/20 10:07:27;;;;;;;6.33;5.80;;;27.30;69.40;;;;;;4911705;29;20271;-72
2023/05/20 10:10:20;;;;;;;6.87;6.37;;;26.90;68.20;;;;;;4912032;29;20981;-71
2023/05/20 10:13:14;;;;;;;6.63;5.93;;;27.50;68.00;;;;;;4930161;29;20565;-71
2023/05/20 10:15:52;;;;;;;6.30;5.90;;;28.50;65.10;;;;;;4926267;29;20517;-72
2023/05/20 10:18:44;;;;;;;6.53;6.03;;;27.80;65.80;;;;;;4933026;29;20515;-74
2023/05/20 10:21:17;;;;;;;5.93;5.47;;;27.10;67.70;;;;;;4930881;28;20465;-72
2023/05/20 10:23:43;;;;;;;6.77;6.23;;;26.40;69.90;;;;;;4932815;29;20498;-74
2023/05/20 10:26:09;;;;;;;6.20;5.70;;;25.80;71.10;;;;;;4932205;29;20452;-72
2023/05/20 10:28:37;;;;;;;6.20;5.60;;;25.50;72.50;;;;;;4933058;29;20482;-74
2023/05/20 10:31:14;;;;;;;5.80;5.40;;;25.00;74.00;;;;;;4925965;29;20630;-73
2023/05/20 10:33:46;;;;;;;6.47;5.87;;;24.60;75.60;;;;;;4938608;29;20974;-74
2023/05/20 10:36:26;;;;;;;7.03;5.60;;;24.70;75.30;;;;;;4923322;29;20455;-73
2023/05/20 10:38:53;;;;;;;7.07;6.47;;;24.40;75.90;;;;;;4915316;29;20496;-72
2023/05/20 10:41:27;;;;;;;6.63;6.03;;;24.50;76.30;;;;;;4932483;29;20801;-72
2023/05/20 10:44:04;;;;;;;6.10;5.70;;;24.40;76.40;;;;;;4912278;29;20454;-72
2023/05/20 10:46:30;;;;;;;8.00;7.30;;;23.70;77.80;;;;;;4926281;29;21013;-72
2023/05/20 10:48:57;;;;;;;6.67;6.17;;;24.00;78.40;;;;;;4927151;29;20545;-72
2023/05/20 10:51:23;;;;;;;5.80;5.30;;;24.20;77.20;;;;;;4930315;28;20608;-73
2023/05/20 10:53:53;;;;;;;6.30;5.90;;;24.50;76.80;;;;;;4913539;29;21068;-72
2023/05/20 10:56:20;;;;;;;6.13;5.63;;;24.30;75.50;;;;;;4931518;29;20452;-74
2023/05/20 10:58:46;;;;;;;6.27;5.77;;;24.50;76.70;;;;;;4929505;29;20445;-71
2023/05/20 11:01:15;;;;;;;6.00;5.50;;;25.00;75.80;;;;;;4928625;29;20464;-72
2023/05/20 11:03:42;;;;;;;6.20;5.70;;;25.60;73.20;;;;;;4928800;29;20682;-74
2023/05/20 11:06:18;;;;;;;5.77;5.37;;;27.30;70.40;;;;;;4928094;29;20503;-72
2023/05/20 11:08:44;;;;;;;5.73;5.23;;;26.80;67.70;;;;;;4911760;29;20464;-73
2023/05/20 11:11:14;;;;;;;5.60;5.20;;;27.10;67.30;;;;;;4929592;29;20974;-73
2023/05/20 11:13:40;;;;;;;6.53;5.93;;;27.10;67.10;;;;;;4926810;29;20506;-73
2023/05/20 11:16:06;;;;;;;6.50;5.90;;;27.20;67.90;;;;;;4927154;29;20462;-74
2023/05/20 11:18:32;;;;;;;7.30;6.70;;;27.40;66.60;;;;;;4916567;29;20504;-72
2023/05/20 11:20:59;;;;;;;6.90;6.30;;;27.90;64.80;;;;;;4928549;29;20212;-73
2023/05/20 11:23:26;;;;;;;6.93;6.33;;;28.60;63.30;;;;;;4929002;29;21586;-73
2023/05/20 11:25:53;;;;;;;5.63;5.23;;;28.80;63.50;;;;;;4923292;29;20464;-71
2023/05/20 11:28:20;;;;;;;6.30;5.80;;;28.60;62.40;;;;;;4932929;29;20464;-72
2023/05/20 11:30:46;;;;;;;6.13;5.70;;;29.10;62.40;;;;;;4924539;29;20477;-71
2023/05/20 11:33:14;;;;;;;7.23;6.03;;;29.90;60.50;;;;;;4932102;29;20480;-71
2023/05/20 11:35:48;;;;;;;4.60;4.20;;;29.50;58.60;;;;;;4930121;29;20916;-72
2023/05/20 11:38:14;;;;;;;5.30;4.90;;;28.50;58.30;;;;;;4909802;29;20479;-72
2023/05/20 11:41:06;;;;;;;6.50;5.27;;;27.90;60.20;;;;;;4911574;29;20469;-71
2023/05/20 11:43:33;;;;;;;5.20;4.80;;;26.90;59.60;;;;;;4923923;29;20466;-73
2023/05/20 11:45:58;;;;;;;4.93;4.53;;;27.10;62.00;;;;;;4912833;29;20474;-73
2023/05/20 11:48:24;;;;;;;7.10;5.63;;;26.70;63.80;;;;;;4929690;29;20832;-74
2023/05/20 11:50:52;;;;;;;6.10;5.60;;;25.90;65.70;;;;;;4934386;29;20292;-73
2023/05/20 11:53:20;;;;;;;6.80;5.90;;;25.10;67.80;;;;;;4935052;29;20460;-72
2023/05/20 11:55:51;;;;;;;6.20;5.60;;;25.30;70.00;;;;;;4920616;29;20806;-72
2023/05/20 11:58:25;;;;;;;6.27;5.77;;;25.00;70.20;;;;;;4934354;29;20452;-74
2023/05/20 12:00:51;;;;;;;6.40;5.83;;;24.70;70.80;;;;;;4925833;29;20462;-74
2023/05/20 12:03:17;;;;;;;6.40;5.80;;;24.40;73.10;;;;;;4936655;29;20492;-74
2023/05/20 12:05:43;;;;;;;7.77;5.63;;;24.20;73.00;;;;;;4931847;29;20457;-71
2023/05/20 12:08:09;;;;;;;5.97;5.47;;;24.40;72.60;;;;;;4917389;29;20191;-72
2023/05/20 12:10:38;;;;;;;5.90;5.37;;;24.40;72.30;;;;;;4938775;29;20218;-72
2023/05/20 12:13:07;;;;;;;5.80;5.30;;;24.50;72.00;;;;;;4930284;29;20482;-71
2023/05/20 12:15:36;;;;;;;5.97;5.50;;;24.80;72.40;;;;;;4915973;29;20469;-71
2023/05/20 12:18:02;;;;;;;7.40;6.23;;;24.90;71.30;;;;;;4934031;29;20782;-72
2023/05/20 12:20:29;;;;;;;6.30;5.80;;;25.40;71.40;;;;;;4935762;29;20831;-71
2023/05/20 12:22:56;;;;;;;5.70;5.27;;;25.60;70.40;;;;;;4913214;29;20467;-72
2023/05/20 12:25:22;;;;;;;6.37;5.77;;;25.70;69.50;;;;;;4922397;29;20911;-72
2023/05/20 12:27:49;;;;;;;7.07;6.40;;;25.70;69.50;;;;;;4932726;29;21016;-72
2023/05/20 12:30:16;;;;;;;29.03;26.87;;;25.40;70.50;;;;;;4950802;23;20534;-90
2023/05/20 12:32:45;;;;;;;9.13;7.33;;;27.70;73.30;;;;;;4939344;28;20479;-91
2023/05/20 12:35:11;;;;;;;6.10;5.60;;;25.50;70.50;;;;;;4935841;29;20815;-89
2023/05/20 12:37:39;;;;;;;6.23;5.63;;;26.20;71.30;;;;;;4934199;28;20454;-90
2023/05/20 12:40:07;;;;;;;6.50;5.90;;;27.00;70.50;;;;;;4936398;29;20493;-90
2023/05/20 12:42:36;;;;;;;6.70;6.07;;;25.60;70.60;;;;;;4939084;28;20495;-90
2023/05/20 12:45:02;;;;;;;6.40;5.90;;;25.60;71.50;;;;;;4935849;29;20454;-90